sensor_id;sensor_type;location;lat;lon;timestamp;pressure;altitude;pressure_sealevel;temperature;humidity
64298;BME280;50639;53.270;7.956;2023-08-31T00:01:08;100520.88;;;11.16;89.83
64298;BME280;50639;53.270;7.956;2023-08-31T00:03:34;100513.94;;;11.16;89.79
64298;BME280;50639;53.270;7.956;2023-08-31T00:06:03;100515.06;;;11.12;89.65
64298;BME280;50639;53.270;7.956;2023-08-31T00:08:30;100523.56;;;11.14;89.85
64298;BME280;50639;53.270;7.956;2023-08-31T00:10:59;100523.25;;;11.06;89.93
64298;BME280;50639;53.270;7.956;2023-08-31T00:13:28;100519.19;;;11.02;90.12
64298;BME280;50639;53.270;7.956;2023-08-31T00:15:57;100520.34;;;10.98;89.77
64298;BME280;50639;53.270;7.956;2023-08-31T00:18:23;100514.34;;;10.98;89.79
64298;BME280;50639;53.270;7.956;2023-08-31T00:20:50;100515.25;;;10.97;89.91
64298;BME280;50639;53.270;7.956;2023-08-31T00:23:15;100511.00;;;10.96;90.09
64298;BME280;50639;53.270;7.956;2023-08-31T00:25:40;100514.53;;;10.94;89.99
64298;BME280;50639;53.270;7.956;2023-08-31T00:28:09;100513.69;;;10.94;89.62
64298;BME280;50639;53.270;7.956;2023-08-31T00:30:34;100517.53;;;10.88;89.94
64298;BME280;50639;53.270;7.956;2023-08-31T00:33:00;100517.53;;;10.88;90.00
64298;BME280;50639;53.270;7.956;2023-08-31T00:35:27;100520.13;;;10.88;89.78
64298;BME280;50639;53.270;7.956;2023-08-31T00:37:54;100513.47;;;10.84;89.53
64298;BME280;50639;53.270;7.956;2023-08-31T00:40:26;100523.94;;;10.83;90.12
64298;BME280;50639;53.270;7.956;2023-08-31T00:42:53;100513.78;;;10.80;89.83
64298;BME280;50639;53.270;7.956;2023-08-31T00:45:18;100525.00;;;10.80;89.89
64298;BME280;50639;53.270;7.956;2023-08-31T00:47:45;100532.22;;;10.75;90.10
64298;BME280;50639;53.270;7.956;2023-08-31T00:50:12;100528.69;;;10.76;89.50
64298;BME280;50639;53.270;7.956;2023-08-31T00:52:38;100525.28;;;10.76;89.86
64298;BME280;50639;53.270;7.956;2023-08-31T00:55:04;100528.88;;;10.73;89.89
64298;BME280;50639;53.270;7.956;2023-08-31T00:57:30;100529.84;;;10.72;89.91
64298;BME280;50639;53.270;7.956;2023-08-31T00:59:56;100529.94;;;10.71;89.75
64298;BME280;50639;53.270;7.956;2023-08-31T01:02:34;100523.94;;;10.70;89.61
64298;BME280;50639;53.270;7.956;2023-08-31T01:05:13;100530.44;;;10.63;89.92
64298;BME280;50639;53.270;7.956;2023-08-31T01:13:21;100525.44;;;10.60;90.06
64298;BME280;50639;53.270;7.956;2023-08-31T01:15:53;100529.91;;;10.58;89.73
64298;BME280;50639;53.270;7.956;2023-08-31T01:18:21;100526.56;;;10.56;89.94
64298;BME280;50639;53.270;7.956;2023-08-31T01:21:00;100518.28;;;10.51;89.94
64298;BME280;50639;53.270;7.956;2023-08-31T01:26:01;100519.22;;;10.50;89.98
64298;BME280;50639;53.270;7.956;2023-08-31T01:28:27;100520.22;;;10.47;90.21
64298;BME280;50639;53.270;7.956;2023-08-31T01:30:52;100525.41;;;10.47;90.26
64298;BME280;50639;53.270;7.956;2023-08-31T01:33:17;100521.06;;;10.48;90.44
64298;BME280;50639;53.270;7.956;2023-08-31T01:35:46;100510.81;;;10.46;90.31
64298;BME280;50639;53.270;7.956;2023-08-31T01:38:15;100519.41;;;10.47;90.35
64298;BME280;50639;53.270;7.956;2023-08-31T01:40:48;100517.84;;;10.44;90.41
64298;BME280;50639;53.270;7.956;2023-08-31T01:43:17;100517.13;;;10.42;90.28
64298;BME280;50639;53.270;7.956;2023-08-31T01:45:45;100522.47;;;10.39;90.44
64298;BME280;50639;53.270;7.956;2023-08-31T01:48:14;100513.06;;;10.38;90.68
64298;BME280;50639;53.270;7.956;2023-08-31T01:50:40;100521.66;;;10.39;90.67
64298;BME280;50639;53.270;7.956;2023-08-31T01:53:05;100519.19;;;10.37;90.25
64298;BME280;50639;53.270;7.956;2023-08-31T01:55:32;100520.13;;;10.36;90.50
64298;BME280;50639;53.270;7.956;2023-08-31T01:57:58;100516.88;;;10.33;90.28
64298;BME280;50639;53.270;7.956;2023-08-31T02:00:26;100527.31;;;10.31;90.62
64298;BME280;50639;53.270;7.956;2023-08-31T02:02:51;100525.78;;;10.29;90.57
64298;BME280;50639;53.270;7.956;2023-08-31T02:05:17;100528.56;;;10.26;90.59
64298;BME280;50639;53.270;7.956;2023-08-31T02:07:43;100526.06;;;10.24;90.67
64298;BME280;50639;53.270;7.956;2023-08-31T02:10:08;100516.00;;;10.20;90.82
64298;BME280;50639;53.270;7.956;2023-08-31T02:12:34;100522.03;;;10.20;90.94
64298;BME280;50639;53.270;7.956;2023-08-31T02:15:01;100517.00;;;10.17;90.84
64298;BME280;50639;53.270;7.956;2023-08-31T02:17:27;100511.81;;;10.17;90.81
64298;BME280;50639;53.270;7.956;2023-08-31T02:19:52;100510.84;;;10.20;91.15
64298;BME280;50639;53.270;7.956;2023-08-31T02:22:18;100512.47;;;10.21;90.65
64298;BME280;50639;53.270;7.956;2023-08-31T02:24:46;100512.75;;;10.16;91.12
64298;BME280;50639;53.270;7.956;2023-08-31T02:27:12;100516.00;;;10.20;91.22
64298;BME280;50639;53.270;7.956;2023-08-31T02:29:37;100513.53;;;10.18;90.97
64298;BME280;50639;53.270;7.956;2023-08-31T02:32:05;100516.00;;;10.20;91.04
64298;BME280;50639;53.270;7.956;2023-08-31T02:34:32;100514.34;;;10.18;91.14
64298;BME280;50639;53.270;7.956;2023-08-31T02:36:58;100514.34;;;10.18;91.08
64298;BME280;50639;53.270;7.956;2023-08-31T02:39:23;100511.00;;;10.16;91.07
64298;BME280;50639;53.270;7.956;2023-08-31T02:41:49;100503.31;;;10.15;91.19
64298;BME280;50639;53.270;7.956;2023-08-31T02:44:16;100511.00;;;10.16;90.89
64298;BME280;50639;53.270;7.956;2023-08-31T02:46:41;100511.91;;;10.15;91.13
64298;BME280;50639;53.270;7.956;2023-08-31T02:49:07;100498.00;;;10.18;91.10
64298;BME280;50639;53.270;7.956;2023-08-31T02:51:33;100502.13;;;10.21;90.85
64298;BME280;50639;53.270;7.956;2023-08-31T02:53:58;100508.34;;;10.18;91.06
64298;BME280;50639;53.270;7.956;2023-08-31T02:56:24;100500.63;;;10.16;91.04
64298;BME280;50639;53.270;7.956;2023-08-31T02:58:49;100500.72;;;10.15;90.70
64298;BME280;50639;53.270;7.956;2023-08-31T03:01:15;100502.66;;;10.11;90.95
64298;BME280;50639;53.270;7.956;2023-08-31T03:03:45;100504.34;;;10.12;91.60
64298;BME280;50639;53.270;7.956;2023-08-31T03:06:11;100507.13;;;10.09;91.23
64298;BME280;50639;53.270;7.956;2023-08-31T03:08:37;100503.06;;;10.05;91.12
64298;BME280;50639;53.270;7.956;2023-08-31T03:11:04;100505.38;;;10.10;91.24
64298;BME280;50639;53.270;7.956;2023-08-31T03:13:31;100500.28;;;10.08;90.95
64298;BME280;50639;53.270;7.956;2023-08-31T03:15:58;100511.66;;;10.06;90.86
64298;BME280;50639;53.270;7.956;2023-08-31T03:18:23;100510.09;;;10.03;90.85
64298;BME280;50639;53.270;7.956;2023-08-31T03:20:49;100512.81;;;10.02;90.94
64298;BME280;50639;53.270;7.956;2023-08-31T03:23:15;100515.56;;;9.99;91.08
64298;BME280;50639;53.270;7.956;2023-08-31T03:25:41;100512.06;;;10.00;91.22
64298;BME280;50639;53.270;7.956;2023-08-31T03:28:06;100509.75;;;9.95;91.12
64298;BME280;50639;53.270;7.956;2023-08-31T03:30:32;100505.72;;;9.91;91.28
64298;BME280;50639;53.270;7.956;2023-08-31T03:32:58;100511.63;;;9.93;91.11
64298;BME280;50639;53.270;7.956;2023-08-31T03:35:23;100515.03;;;9.94;90.94
64298;BME280;50639;53.270;7.956;2023-08-31T03:37:53;100513.56;;;9.90;91.13
64298;BME280;50639;53.270;7.956;2023-08-31T03:40:19;100521.31;;;9.90;90.87
64298;BME280;50639;53.270;7.956;2023-08-31T03:42:44;100515.41;;;9.88;91.28
64298;BME280;50639;53.270;7.956;2023-08-31T03:45:11;100517.91;;;9.89;90.84
64298;BME280;50639;53.270;7.956;2023-08-31T03:47:37;100521.59;;;9.85;91.05
64298;BME280;50639;53.270;7.956;2023-08-31T03:50:03;100524.38;;;9.82;91.22
64298;BME280;50639;53.270;7.956;2023-08-31T03:52:29;100523.47;;;9.83;91.19
64298;BME280;50639;53.270;7.956;2023-08-31T03:54:55;100527.16;;;9.79;90.71
64298;BME280;50639;53.270;7.956;2023-08-31T03:57:21;100533.97;;;9.80;91.14
64298;BME280;50639;53.270;7.956;2023-08-31T03:59:48;100527.44;;;9.74;91.13
64298;BME280;50639;53.270;7.956;2023-08-31T04:02:13;100532.53;;;9.76;90.92
64298;BME280;50639;53.270;7.956;2023-08-31T04:04:39;100529.81;;;9.77;91.18
64298;BME280;50639;53.270;7.956;2023-08-31T04:07:06;100529.94;;;9.76;91.25
64298;BME280;50639;53.270;7.956;2023-08-31T04:09:34;100535.91;;;9.76;91.09
64298;BME280;50639;53.270;7.956;2023-08-31T04:12:00;100535.13;;;9.76;90.87
64298;BME280;50639;53.270;7.956;2023-08-31T04:14:29;100536.22;;;9.72;91.06
64298;BME280;50639;53.270;7.956;2023-08-31T04:16:55;100535.47;;;9.70;91.22
64298;BME280;50639;53.270;7.956;2023-08-31T04:19:20;100538.97;;;9.69;91.30
64298;BME280;50639;53.270;7.956;2023-08-31T04:21:46;100544.28;;;9.67;91.30
64298;BME280;50639;53.270;7.956;2023-08-31T04:24:11;100543.44;;;9.67;90.92
64298;BME280;50639;53.270;7.956;2023-08-31T04:26:36;100546.84;;;9.67;91.21
64298;BME280;50639;53.270;7.956;2023-08-31T04:29:03;100546.56;;;9.72;91.22
64298;BME280;50639;53.270;7.956;2023-08-31T04:31:33;100551.09;;;9.82;91.28
64298;BME280;50639;53.270;7.956;2023-08-31T04:33:59;100552.94;;;9.80;91.20
64298;BME280;50639;53.270;7.956;2023-08-31T04:36:24;100556.34;;;9.81;91.08
64298;BME280;50639;53.270;7.956;2023-08-31T04:38:51;100552.19;;;9.78;91.12
64298;BME280;50639;53.270;7.956;2023-08-31T04:41:17;100553.00;;;9.79;90.78
64298;BME280;50639;53.270;7.956;2023-08-31T04:43:42;100548.41;;;9.70;90.95
64298;BME280;50639;53.270;7.956;2023-08-31T04:46:08;100554.03;;;9.62;91.42
64298;BME280;50639;53.270;7.956;2023-08-31T04:48:33;100561.13;;;9.59;91.20
64298;BME280;50639;53.270;7.956;2023-08-31T04:50:59;100560.34;;;9.58;91.37
64298;BME280;50639;53.270;7.956;2023-08-31T04:53:25;100555.06;;;9.60;91.19
64298;BME280;50639;53.270;7.956;2023-08-31T04:55:50;100552.28;;;9.63;91.12
64298;BME280;50639;53.270;7.956;2023-08-31T04:58:16;100558.28;;;9.63;91.45
64298;BME280;50639;53.270;7.956;2023-08-31T05:00:42;100553.22;;;9.62;91.31
64298;BME280;50639;53.270;7.956;2023-08-31T05:03:09;100551.63;;;9.59;91.22
64298;BME280;50639;53.270;7.956;2023-08-31T05:05:35;100557.47;;;9.63;91.24
64298;BME280;50639;53.270;7.956;2023-08-31T05:08:00;100556.25;;;9.68;91.34
64298;BME280;50639;53.270;7.956;2023-08-31T05:10:26;100559.50;;;9.72;91.14
64298;BME280;50639;53.270;7.956;2023-08-31T05:12:51;100557.19;;;9.81;91.01
64298;BME280;50639;53.270;7.956;2023-08-31T05:15:16;100561.88;;;9.89;90.84
64298;BME280;50639;53.270;7.956;2023-08-31T05:17:42;100554.78;;;9.93;91.10
64298;BME280;50639;53.270;7.956;2023-08-31T05:20:08;100555.22;;;9.99;90.76
64298;BME280;50639;53.270;7.956;2023-08-31T05:22:35;100559.56;;;9.99;90.78
64298;BME280;50639;53.270;7.956;2023-08-31T05:25:01;100565.25;;;10.04;91.05
64298;BME280;50639;53.270;7.956;2023-08-31T05:27:26;100560.56;;;10.10;90.95
64298;BME280;50639;53.270;7.956;2023-08-31T05:29:52;100570.38;;;10.20;90.92
64298;BME280;50639;53.270;7.956;2023-08-31T05:32:17;100573.75;;;10.34;90.52
64298;BME280;50639;53.270;7.956;2023-08-31T05:34:42;100585.09;;;10.46;90.65
64298;BME280;50639;53.270;7.956;2023-08-31T05:37:08;100572.75;;;10.49;90.44
64298;BME280;50639;53.270;7.956;2023-08-31T05:39:33;100575.25;;;10.51;90.13
64298;BME280;50639;53.270;7.956;2023-08-31T05:41:59;100574.00;;;10.56;90.26
64298;BME280;50639;53.270;7.956;2023-08-31T05:44:25;100574.94;;;10.55;90.13
64298;BME280;50639;53.270;7.956;2023-08-31T05:46:50;100576.81;;;10.53;89.86
64298;BME280;50639;53.270;7.956;2023-08-31T05:49:16;100575.78;;;10.56;90.11
64298;BME280;50639;53.270;7.956;2023-08-31T05:51:41;100570.97;;;10.64;90.05
64298;BME280;50639;53.270;7.956;2023-08-31T05:54:06;100571.16;;;10.61;90.00
64298;BME280;50639;53.270;7.956;2023-08-31T05:56:37;100574.25;;;10.66;89.83
64298;BME280;50639;53.270;7.956;2023-08-31T05:59:05;100569.81;;;10.68;89.68
64298;BME280;50639;53.270;7.956;2023-08-31T06:01:30;100574.06;;;10.69;90.04
64298;BME280;50639;53.270;7.956;2023-08-31T06:03:55;100580.91;;;10.70;90.46
64298;BME280;50639;53.270;7.956;2023-08-31T06:06:21;100586.00;;;10.72;90.08
64298;BME280;50639;53.270;7.956;2023-08-31T06:08:46;100576.16;;;10.77;90.25
64298;BME280;50639;53.270;7.956;2023-08-31T06:11:11;100583.25;;;10.87;90.41
64298;BME280;50639;53.270;7.956;2023-08-31T06:13:38;100586.06;;;10.97;89.95
64298;BME280;50639;53.270;7.956;2023-08-31T06:16:04;100593.75;;;11.11;89.63
64298;BME280;50639;53.270;7.956;2023-08-31T06:18:29;100586.28;;;11.19;89.63
64298;BME280;50639;53.270;7.956;2023-08-31T06:20:54;100595.44;;;11.25;89.08
64298;BME280;50639;53.270;7.956;2023-08-31T06:23:20;100589.63;;;11.21;88.83
64298;BME280;50639;53.270;7.956;2023-08-31T06:25:45;100599.88;;;11.36;88.82
64298;BME280;50639;53.270;7.956;2023-08-31T06:28:11;100608.91;;;11.55;88.36
64298;BME280;50639;53.270;7.956;2023-08-31T06:30:37;100606.34;;;11.81;87.98
64298;BME280;50639;53.270;7.956;2023-08-31T06:33:03;100616.19;;;12.01;87.92
64298;BME280;50639;53.270;7.956;2023-08-31T06:35:29;100618.31;;;12.20;87.27
64298;BME280;50639;53.270;7.956;2023-08-31T06:37:54;100614.91;;;12.19;87.17
64298;BME280;50639;53.270;7.956;2023-08-31T06:40:21;100609.25;;;12.25;87.06
64298;BME280;50639;53.270;7.956;2023-08-31T06:42:46;100614.84;;;12.32;86.15
64298;BME280;50639;53.270;7.956;2023-08-31T06:45:12;100615.16;;;12.40;86.60
64298;BME280;50639;53.270;7.956;2023-08-31T06:47:37;100614.38;;;12.51;85.81
64298;BME280;50639;53.270;7.956;2023-08-31T06:50:03;100615.81;;;12.55;85.73
64298;BME280;50639;53.270;7.956;2023-08-31T06:52:29;100612.03;;;12.59;85.36
64298;BME280;50639;53.270;7.956;2023-08-31T06:54:55;100609.34;;;12.60;85.33
64298;BME280;50639;53.270;7.956;2023-08-31T06:57:26;100612.13;;;12.70;85.25
64298;BME280;50639;53.270;7.956;2023-08-31T06:59:51;100613.94;;;12.80;85.31
64298;BME280;50639;53.270;7.956;2023-08-31T07:02:17;100613.75;;;12.95;84.57
64298;BME280;50639;53.270;7.956;2023-08-31T07:04:45;100603.75;;;13.01;85.16
64298;BME280;50639;53.270;7.956;2023-08-31T07:07:11;100607.97;;;13.02;83.86
64298;BME280;50639;53.270;7.956;2023-08-31T07:09:42;100617.84;;;13.10;84.56
64298;BME280;50639;53.270;7.956;2023-08-31T07:12:07;100625.47;;;13.24;84.45
64298;BME280;50639;53.270;7.956;2023-08-31T07:14:32;100627.28;;;13.35;83.77
64298;BME280;50639;53.270;7.956;2023-08-31T07:16:58;100630.00;;;13.44;83.59
64298;BME280;50639;53.270;7.956;2023-08-31T07:19:23;100632.97;;;13.51;83.37
64298;BME280;50639;53.270;7.956;2023-08-31T07:21:49;100634.84;;;13.49;83.27
64298;BME280;50639;53.270;7.956;2023-08-31T07:24:14;100635.44;;;13.41;83.04
64298;BME280;50639;53.270;7.956;2023-08-31T07:26:39;100636.69;;;13.25;83.13
64298;BME280;50639;53.270;7.956;2023-08-31T07:29:05;100638.50;;;13.46;83.23
64298;BME280;50639;53.270;7.956;2023-08-31T07:31:31;100639.44;;;13.34;83.31
64298;BME280;50639;53.270;7.956;2023-08-31T07:33:57;100634.34;;;13.33;83.07
64298;BME280;50639;53.270;7.956;2023-08-31T07:36:24;100647.50;;;13.42;83.14
64298;BME280;50639;53.270;7.956;2023-08-31T07:38:50;100646.44;;;13.45;83.14
64298;BME280;50639;53.270;7.956;2023-08-31T07:41:15;100634.13;;;13.47;82.96
64298;BME280;50639;53.270;7.956;2023-08-31T07:43:41;100637.59;;;13.59;82.56
64298;BME280;50639;53.270;7.956;2023-08-31T07:46:06;100635.47;;;13.64;82.64
64298;BME280;50639;53.270;7.956;2023-08-31T07:48:32;100634.66;;;13.63;82.12
64298;BME280;50639;53.270;7.956;2023-08-31T07:50:57;100630.97;;;13.66;82.38
64298;BME280;50639;53.270;7.956;2023-08-31T07:53:23;100629.22;;;13.77;81.76
64298;BME280;50639;53.270;7.956;2023-08-31T07:55:55;100631.00;;;13.88;82.16
64298;BME280;50639;53.270;7.956;2023-08-31T07:58:24;100630.16;;;13.99;81.89
64298;BME280;50639;53.270;7.956;2023-08-31T08:00:55;100635.97;;;14.13;81.80
64298;BME280;50639;53.270;7.956;2023-08-31T08:03:24;100635.72;;;14.39;81.08
64298;BME280;50639;53.270;7.956;2023-08-31T08:05:50;100628.22;;;14.34;80.72
64298;BME280;50639;53.270;7.956;2023-08-31T08:08:16;100626.97;;;14.40;80.33
64298;BME280;50639;53.270;7.956;2023-08-31T08:10:41;100641.84;;;14.60;79.70
64298;BME280;50639;53.270;7.956;2023-08-31T08:13:08;100635.88;;;14.69;79.61
64298;BME280;50639;53.270;7.956;2023-08-31T08:15:33;100647.84;;;14.72;79.25
64298;BME280;50639;53.270;7.956;2023-08-31T08:17:59;100648.16;;;14.78;78.82
64298;BME280;50639;53.270;7.956;2023-08-31T08:20:24;100647.47;;;15.08;78.63
64298;BME280;50639;53.270;7.956;2023-08-31T08:22:50;100647.28;;;15.21;77.14
64298;BME280;50639;53.270;7.956;2023-08-31T08:25:19;100658.50;;;15.53;76.19
64298;BME280;50639;53.270;7.956;2023-08-31T08:27:46;100664.41;;;15.76;76.13
64298;BME280;50639;53.270;7.956;2023-08-31T08:30:11;100665.38;;;15.75;74.98
64298;BME280;50639;53.270;7.956;2023-08-31T08:32:37;100675.38;;;15.70;75.68
64298;BME280;50639;53.270;7.956;2023-08-31T08:35:02;100681.78;;;15.87;75.73
64298;BME280;50639;53.270;7.956;2023-08-31T08:37:28;100681.63;;;16.09;75.63
64298;BME280;50639;53.270;7.956;2023-08-31T08:39:54;100685.66;;;16.23;74.41
64298;BME280;50639;53.270;7.956;2023-08-31T08:42:24;100689.38;;;16.20;74.13
64298;BME280;50639;53.270;7.956;2023-08-31T08:44:50;100698.66;;;16.34;73.46
64298;BME280;50639;53.270;7.956;2023-08-31T08:47:16;100693.34;;;16.14;72.35
64298;BME280;50639;53.270;7.956;2023-08-31T08:49:42;100699.81;;;16.20;73.21
64298;BME280;50639;53.270;7.956;2023-08-31T08:52:09;100698.88;;;16.21;73.32
64298;BME280;50639;53.270;7.956;2023-08-31T08:54:35;100703.75;;;16.05;73.13
64298;BME280;50639;53.270;7.956;2023-08-31T08:57:00;100705.91;;;16.30;73.64
64298;BME280;50639;53.270;7.956;2023-08-31T08:59:26;100694.56;;;16.50;72.74
64298;BME280;50639;53.270;7.956;2023-08-31T09:01:53;100700.66;;;16.61;71.75
64298;BME280;50639;53.270;7.956;2023-08-31T09:04:18;100703.28;;;16.61;70.84
64298;BME280;50639;53.270;7.956;2023-08-31T09:06:44;100702.06;;;16.65;71.08
64298;BME280;50639;53.270;7.956;2023-08-31T09:09:10;100701.53;;;16.71;71.76
64298;BME280;50639;53.270;7.956;2023-08-31T09:11:36;100705.81;;;16.91;71.56
64298;BME280;50639;53.270;7.956;2023-08-31T09:14:14;100706.50;;;16.93;71.26
64298;BME280;50639;53.270;7.956;2023-08-31T09:16:44;100703.88;;;16.74;69.73
64298;BME280;50639;53.270;7.956;2023-08-31T09:19:25;100700.72;;;16.70;70.27
64298;BME280;50639;53.270;7.956;2023-08-31T09:21:56;100702.38;;;16.90;69.90
64298;BME280;50639;53.270;7.956;2023-08-31T09:24:22;100700.03;;;16.87;69.95
64298;BME280;50639;53.270;7.956;2023-08-31T09:26:57;100706.66;;;16.91;69.04
64298;BME280;50639;53.270;7.956;2023-08-31T09:29:23;100700.16;;;16.76;69.43
64298;BME280;50639;53.270;7.956;2023-08-31T09:31:49;100694.13;;;17.05;70.58
64298;BME280;50639;53.270;7.956;2023-08-31T09:34:16;100688.63;;;17.17;70.13
64298;BME280;50639;53.270;7.956;2023-08-31T09:36:42;100694.13;;;16.95;69.30
64298;BME280;50639;53.270;7.956;2023-08-31T09:39:08;100689.03;;;17.13;70.52
64298;BME280;50639;53.270;7.956;2023-08-31T09:41:56;100690.25;;;16.99;69.59
64298;BME280;50639;53.270;7.956;2023-08-31T09:44:21;100693.56;;;17.01;68.37
64298;BME280;50639;53.270;7.956;2023-08-31T09:46:47;100695.91;;;16.95;69.12
64298;BME280;50639;53.270;7.956;2023-08-31T09:49:14;100694.81;;;16.78;68.63
64298;BME280;50639;53.270;7.956;2023-08-31T09:51:44;100692.47;;;16.84;69.22
64298;BME280;50639;53.270;7.956;2023-08-31T09:54:13;100688.47;;;16.90;69.62
64298;BME280;50639;53.270;7.956;2023-08-31T09:56:44;100690.25;;;16.89;68.83
64298;BME280;50639;53.270;7.956;2023-08-31T09:59:11;100686.81;;;16.99;68.25
64298;BME280;50639;53.270;7.956;2023-08-31T10:01:37;100685.16;;;16.98;68.06
64298;BME280;50639;53.270;7.956;2023-08-31T10:04:04;100689.03;;;17.03;67.94
64298;BME280;50639;53.270;7.956;2023-08-31T10:06:31;100696.91;;;17.13;68.82
64298;BME280;50639;53.270;7.956;2023-08-31T10:08:58;100693.84;;;16.98;68.03
64298;BME280;50639;53.270;7.956;2023-08-31T10:11:25;100695.47;;;16.89;67.97
64298;BME280;50639;53.270;7.956;2023-08-31T10:13:52;100688.31;;;16.82;67.14
64298;BME280;50639;53.270;7.956;2023-08-31T10:16:21;100693.28;;;16.75;68.28
64298;BME280;50639;53.270;7.956;2023-08-31T10:18:47;100690.44;;;16.48;68.15
64298;BME280;50639;53.270;7.956;2023-08-31T10:21:16;100689.34;;;16.50;68.87
64298;BME280;50639;53.270;7.956;2023-08-31T10:23:48;100690.88;;;16.53;69.52
64298;BME280;50639;53.270;7.956;2023-08-31T10:26:27;100702.88;;;16.25;70.74
64298;BME280;50639;53.270;7.956;2023-08-31T10:28:53;100707.66;;;16.20;69.27
64298;BME280;50639;53.270;7.956;2023-08-31T10:31:20;100708.78;;;16.17;69.38
64298;BME280;50639;53.270;7.956;2023-08-31T10:36:40;100718.59;;;16.04;72.99
64298;BME280;50639;53.270;7.956;2023-08-31T10:39:11;100725.22;;;16.08;73.50
64298;BME280;50639;53.270;7.956;2023-08-31T10:41:37;100727.09;;;15.97;74.13
64298;BME280;50639;53.270;7.956;2023-08-31T10:44:27;100731.41;;;15.87;74.28
64298;BME280;50639;53.270;7.956;2023-08-31T10:46:54;100728.00;;;16.16;73.70
64298;BME280;50639;53.270;7.956;2023-08-31T10:49:21;100728.72;;;16.59;74.64
64298;BME280;50639;53.270;7.956;2023-08-31T10:51:47;100722.47;;;16.90;73.93
64298;BME280;50639;53.270;7.956;2023-08-31T10:54:21;100721.13;;;17.44;73.89
64298;BME280;50639;53.270;7.956;2023-08-31T11:05:15;100700.13;;;18.29;69.98
64298;BME280;50639;53.270;7.956;2023-08-31T11:07:45;100709.50;;;18.22;70.85
64298;BME280;50639;53.270;7.956;2023-08-31T11:10:20;100709.13;;;18.17;70.83
64298;BME280;50639;53.270;7.956;2023-08-31T11:12:47;100699.47;;;18.17;68.50
64298;BME280;50639;53.270;7.956;2023-08-31T11:15:15;100692.47;;;18.08;67.33
64298;BME280;50639;53.270;7.956;2023-08-31T11:17:41;100697.19;;;17.95;67.33
64298;BME280;50639;53.270;7.956;2023-08-31T11:20:09;100693.97;;;17.74;66.66
64298;BME280;50639;53.270;7.956;2023-08-31T11:22:37;100716.72;;;17.25;67.11
64298;BME280;50639;53.270;7.956;2023-08-31T11:25:03;100775.56;;;16.62;69.36
64298;BME280;50639;53.270;7.956;2023-08-31T11:27:29;100789.34;;;15.71;76.36
64298;BME280;50639;53.270;7.956;2023-08-31T11:29:54;100785.41;;;14.79;81.38
64298;BME280;50639;53.270;7.956;2023-08-31T11:32:23;100787.59;;;13.94;81.32
64298;BME280;50639;53.270;7.956;2023-08-31T11:34:50;100782.59;;;13.56;81.63
64298;BME280;50639;53.270;7.956;2023-08-31T11:37:15;100778.00;;;13.60;82.49
64298;BME280;50639;53.270;7.956;2023-08-31T11:39:51;100776.78;;;13.77;83.14
64298;BME280;50639;53.270;7.956;2023-08-31T11:42:17;100808.31;;;13.61;81.84
64298;BME280;50639;53.270;7.956;2023-08-31T11:44:45;100795.69;;;13.44;81.17
64298;BME280;50639;53.270;7.956;2023-08-31T11:47:12;100798.78;;;13.25;83.48
64298;BME280;50639;53.270;7.956;2023-08-31T11:49:39;100793.22;;;13.18;82.26
64298;BME280;50639;53.270;7.956;2023-08-31T11:52:05;100788.22;;;13.15;82.16
64298;BME280;50639;53.270;7.956;2023-08-31T11:54:31;100790.91;;;13.14;82.51
64298;BME280;50639;53.270;7.956;2023-08-31T11:56:56;100787.38;;;13.02;82.73
64298;BME280;50639;53.270;7.956;2023-08-31T11:59:22;100792.38;;;13.18;83.26
64298;BME280;50639;53.270;7.956;2023-08-31T12:01:50;100791.19;;;13.46;82.91
64298;BME280;50639;53.270;7.956;2023-08-31T12:04:22;100801.69;;;13.68;82.84
64298;BME280;50639;53.270;7.956;2023-08-31T12:06:50;100789.28;;;14.07;82.76
64298;BME280;50639;53.270;7.956;2023-08-31T12:09:17;100789.59;;;14.48;82.67
64298;BME280;50639;53.270;7.956;2023-08-31T12:11:49;100787.78;;;14.71;81.77
64298;BME280;50639;53.270;7.956;2023-08-31T12:14:20;100794.88;;;14.91;81.32
64298;BME280;50639;53.270;7.956;2023-08-31T12:16:46;100804.38;;;15.03;81.14
64298;BME280;50639;53.270;7.956;2023-08-31T12:19:12;100804.81;;;14.97;79.34
64298;BME280;50639;53.270;7.956;2023-08-31T12:21:37;100806.97;;;14.92;79.73
64298;BME280;50639;53.270;7.956;2023-08-31T12:24:04;100802.47;;;14.94;78.65
64298;BME280;50639;53.270;7.956;2023-08-31T12:26:31;100812.75;;;14.96;79.88
64298;BME280;50639;53.270;7.956;2023-08-31T12:28:57;100809.31;;;14.95;80.08
64298;BME280;50639;53.270;7.956;2023-08-31T12:31:23;100811.59;;;15.00;81.06
64298;BME280;50639;53.270;7.956;2023-08-31T12:33:48;100816.09;;;14.98;80.50
64298;BME280;50639;53.270;7.956;2023-08-31T12:36:14;100807.53;;;15.07;80.58
64298;BME280;50639;53.270;7.956;2023-08-31T12:38:39;100811.56;;;15.11;80.93
64298;BME280;50639;53.270;7.956;2023-08-31T12:41:05;100815.38;;;15.07;80.37
64298;BME280;50639;53.270;7.956;2023-08-31T12:43:30;100815.84;;;15.12;81.13
64298;BME280;50639;53.270;7.956;2023-08-31T12:45:56;100810.34;;;15.26;80.89
64298;BME280;50639;53.270;7.956;2023-08-31T12:48:22;100801.53;;;15.38;80.81
64298;BME280;50639;53.270;7.956;2023-08-31T12:50:48;100809.59;;;15.47;80.27
64298;BME280;50639;53.270;7.956;2023-08-31T12:53:16;100816.00;;;15.54;79.99
64298;BME280;50639;53.270;7.956;2023-08-31T12:55:42;100816.84;;;15.75;80.22
64298;BME280;50639;53.270;7.956;2023-08-31T12:58:07;100814.75;;;15.90;79.77
64298;BME280;50639;53.270;7.956;2023-08-31T13:00:33;100809.41;;;16.12;79.96
64298;BME280;50639;53.270;7.956;2023-08-31T13:02:59;100801.13;;;16.07;78.21
64298;BME280;50639;53.270;7.956;2023-08-31T13:05:25;100806.78;;;16.33;78.89
64298;BME280;50639;53.270;7.956;2023-08-31T13:07:52;100801.31;;;16.66;79.32
64298;BME280;50639;53.270;7.956;2023-08-31T13:10:18;100807.00;;;16.81;78.05